createdAt,value
2022-08-14T00:12:24.105Z,15.80
2022-08-14T00:14:54.920Z,15.80
2022-08-14T00:17:23.057Z,15.80
2022-08-14T00:19:51.770Z,15.90
2022-08-14T00:22:21.949Z,15.70
2022-08-14T00:25:09.099Z,15.80
2022-08-14T00:27:37.983Z,15.80
2022-08-14T00:30:14.329Z,15.70
2022-08-14T00:32:55.634Z,15.50
2022-08-14T00:36:37.489Z,15.60
2022-08-14T00:38:11.541Z,15.50
2022-08-14T00:40:39.045Z,15.50
2022-08-14T00:43:06.482Z,15.60
2022-08-14T00:45:34.001Z,15.50
2022-08-14T00:48:00.993Z,15.50
2022-08-14T00:50:31.280Z,15.60
2022-08-14T00:58:17.088Z,15.20
2022-08-14T01:00:51.357Z,15.30
2022-08-14T01:03:26.212Z,15.40
2022-08-14T01:05:53.295Z,15.40
2022-08-14T01:08:58.115Z,15.30
2022-08-14T01:11:18.804Z,15.30
2022-08-14T01:13:55.892Z,15.20
2022-08-14T01:16:31.305Z,15.30
2022-08-14T01:19:19.813Z,15.40
2022-08-14T01:21:52.864Z,15.10
2022-08-14T01:24:30.267Z,15.40
2022-08-14T01:27:00.369Z,15.40
2022-08-14T01:29:58.356Z,15.00
2022-08-14T01:35:17.357Z,14.90
2022-08-14T01:37:54.865Z,15.00
2022-08-14T01:40:36.566Z,15.10
2022-08-14T01:43:18.698Z,15.10
2022-08-14T01:45:57.652Z,15.20
2022-08-14T01:48:37.193Z,14.90
2022-08-14T01:51:06.216Z,15.00
2022-08-14T01:53:55.588Z,14.90
2022-08-14T01:56:36.943Z,14.90
2022-08-14T01:59:09.972Z,15.00
2022-08-14T02:01:38.510Z,14.80
2022-08-14T02:04:40.712Z,14.80
2022-08-14T02:06:56.990Z,14.80
2022-08-14T02:09:24.467Z,14.60
2022-08-14T02:11:54.373Z,14.70
2022-08-14T02:14:31.236Z,14.50
2022-08-14T02:16:59.272Z,14.70
2022-08-14T02:19:28.452Z,14.50
2022-08-14T02:22:02.899Z,14.50
2022-08-14T02:24:39.725Z,14.40
2022-08-14T02:28:26.072Z,14.50
2022-08-14T02:30:00.973Z,14.50
2022-08-14T02:35:13.902Z,14.30
2022-08-14T02:37:48.422Z,14.40
2022-08-14T02:40:18.632Z,14.30
2022-08-14T02:42:54.876Z,14.30
2022-08-14T02:45:38.810Z,14.30
2022-08-14T02:49:01.293Z,14.50
2022-08-14T02:51:02.764Z,14.60
2022-08-14T02:53:31.512Z,15.00
2022-08-14T02:56:03.160Z,14.90
2022-08-14T02:58:42.314Z,14.60
2022-08-14T03:01:10.433Z,14.60
2022-08-14T03:03:39.086Z,14.60
2022-08-14T03:06:09.022Z,14.60
2022-08-14T03:08:38.486Z,14.80
2022-08-14T03:11:09.438Z,14.90
2022-08-14T03:13:39.698Z,15.00
2022-08-14T03:16:20.136Z,15.10
2022-08-14T03:18:59.756Z,15.00
2022-08-14T03:21:27.179Z,15.10
2022-08-14T03:24:21.662Z,15.10
2022-08-14T03:26:57.324Z,14.90
2022-08-14T03:29:26.405Z,14.70
2022-08-14T03:31:54.298Z,14.60
2022-08-14T03:34:47.755Z,14.80
2022-08-14T03:37:51.035Z,14.80
2022-08-14T03:40:00.441Z,15.50
2022-08-14T03:42:35.778Z,15.70
2022-08-14T03:45:25.560Z,15.40
2022-08-14T03:47:58.402Z,15.40
2022-08-14T03:50:31.374Z,15.40
2022-08-14T03:53:01.933Z,15.30
2022-08-14T03:55:30.423Z,15.50
2022-08-14T03:58:00.503Z,15.50
2022-08-14T04:00:44.243Z,15.50
2022-08-14T04:03:18.075Z,15.60
2022-08-14T04:05:48.872Z,15.60
2022-08-14T04:08:29.691Z,15.70
2022-08-14T04:11:01.660Z,15.60
2022-08-14T04:13:34.665Z,15.90
2022-08-14T04:16:12.382Z,16.10
2022-08-14T04:18:45.882Z,16.10
2022-08-14T04:21:16.116Z,15.90
2022-08-14T04:23:44.651Z,16.30
2022-08-14T04:42:56.848Z,17.70
2022-08-14T04:50:53.947Z,18.10
2022-08-14T04:53:35.500Z,18.40
2022-08-14T04:56:30.216Z,18.70
2022-08-14T05:04:08.724Z,19.00
2022-08-14T05:09:14.190Z,19.30
2022-08-14T05:29:51.063Z,20.40
2022-08-14T05:32:18.077Z,20.60
2022-08-14T05:34:46.057Z,20.50
2022-08-14T05:37:15.345Z,20.40
2022-08-14T05:39:43.593Z,20.30
2022-08-14T05:42:21.456Z,20.30
2022-08-14T05:44:49.563Z,20.60
2022-08-14T05:47:21.578Z,20.60
2022-08-14T05:49:48.650Z,20.60
2022-08-14T05:52:17.969Z,20.90
2022-08-14T05:54:45.142Z,21.00
2022-08-14T05:57:13.052Z,20.90
2022-08-14T06:12:11.888Z,22.10
2022-08-14T06:14:39.429Z,22.20
2022-08-14T06:17:06.899Z,22.10
2022-08-14T06:19:33.883Z,22.20
2022-08-14T06:22:01.704Z,22.30
2022-08-14T06:24:30.508Z,22.40
2022-08-14T06:27:09.965Z,22.80
2022-08-14T06:32:37.418Z,23.10
2022-08-14T06:35:12.122Z,23.10
2022-08-14T06:40:27.220Z,23.50
2022-08-14T06:43:03.541Z,23.40
2022-08-14T06:45:32.115Z,23.60
2022-08-14T06:48:00.483Z,23.90
2022-08-14T06:50:30.300Z,23.90
2022-08-14T06:53:00.479Z,24.20
2022-08-14T06:55:28.162Z,24.10
2022-08-14T06:57:58.518Z,24.10
2022-08-14T07:00:30.828Z,24.40
2022-08-14T07:03:17.711Z,24.30
2022-08-14T07:16:05.347Z,24.50
2022-08-14T07:18:35.463Z,25.00
2022-08-14T07:23:33.090Z,24.90
2022-08-14T07:26:04.983Z,25.00
2022-08-14T07:28:36.045Z,25.20
2022-08-14T07:31:12.597Z,25.20
2022-08-14T07:33:51.655Z,25.30
2022-08-14T07:36:27.290Z,25.30
2022-08-14T07:39:03.219Z,25.30
2022-08-14T07:41:39.463Z,25.60
2022-08-14T07:44:29.260Z,25.60
2022-08-14T07:46:58.422Z,25.40
2022-08-14T07:49:26.270Z,25.60
2022-08-14T07:54:23.159Z,25.60
2022-08-14T07:57:11.866Z,25.80
2022-08-14T07:59:44.448Z,25.60
2022-08-14T08:02:20.622Z,25.70
2022-08-14T08:04:55.091Z,25.70
2022-08-14T08:07:29.659Z,25.70
2022-08-14T08:09:59.835Z,25.80
2022-08-14T08:12:31.226Z,25.80
2022-08-14T08:15:05.998Z,25.70
2022-08-14T08:17:42.519Z,25.80
2022-08-14T08:20:16.824Z,25.90
2022-08-14T08:22:49.967Z,25.90
2022-08-14T08:28:08.366Z,26.10
2022-08-14T08:30:37.990Z,26.10
2022-08-14T08:33:16.994Z,26.10
2022-08-14T08:35:50.496Z,26.00
2022-08-14T08:39:17.446Z,25.70
2022-08-14T08:41:13.009Z,25.70
2022-08-14T08:43:46.023Z,25.80
2022-08-14T08:46:23.541Z,26.00
2022-08-14T08:51:34.231Z,26.10
2022-08-14T08:54:15.176Z,26.40
2022-08-14T08:56:52.032Z,26.30
2022-08-14T08:59:20.375Z,26.30
2022-08-14T09:01:56.424Z,26.30
2022-08-14T09:04:34.937Z,26.60
2022-08-14T09:07:10.761Z,26.60
2022-08-14T09:09:54.499Z,26.80
2022-08-14T09:12:31.623Z,27.10
2022-08-14T09:15:02.473Z,26.90
2022-08-14T09:17:30.431Z,27.00
2022-08-14T09:19:57.831Z,27.10
2022-08-14T09:22:35.794Z,27.30
2022-08-14T09:25:07.822Z,27.40
2022-08-14T09:27:37.223Z,27.40
2022-08-14T09:30:31.379Z,27.60
2022-08-14T09:33:09.111Z,27.60
2022-08-14T09:36:10.805Z,27.40
2022-08-14T09:38:53.836Z,27.30
2022-08-14T09:42:20.046Z,27.30
2022-08-14T09:45:20.180Z,27.40
2022-08-14T09:47:52.113Z,27.50
2022-08-14T09:50:23.754Z,27.40
2022-08-14T09:53:18.025Z,27.60
2022-08-14T09:55:46.011Z,27.70
2022-08-14T09:58:19.610Z,27.60
2022-08-14T10:00:50.843Z,27.70
2022-08-14T10:03:33.898Z,27.60
2022-08-14T10:06:08.747Z,28.00
2022-08-14T10:08:51.794Z,28.20
2022-08-14T10:11:25.691Z,27.90
2022-08-14T10:17:05.182Z,28.00
2022-08-14T10:19:36.482Z,27.90
2022-08-14T10:23:12.613Z,27.70
2022-08-14T10:24:59.779Z,28.00
2022-08-14T10:27:28.123Z,27.80
2022-08-14T10:29:59.960Z,28.00
2022-08-14T10:32:28.488Z,27.80
2022-08-14T10:35:13.661Z,28.00
2022-08-14T10:37:50.760Z,27.70
2022-08-14T10:40:43.584Z,28.00
2022-08-14T10:43:23.947Z,27.80
2022-08-14T10:46:21.993Z,28.10
2022-08-14T10:49:04.196Z,28.10
2022-08-14T10:51:39.780Z,27.80
2022-08-14T10:54:16.279Z,28.10
2022-08-14T10:56:44.695Z,27.70
2022-08-14T10:59:11.928Z,27.70
2022-08-14T11:01:40.839Z,28.00
2022-08-14T11:04:25.312Z,27.80
2022-08-14T11:06:54.264Z,27.80
2022-08-14T11:09:21.540Z,28.00
2022-08-14T11:12:34.188Z,28.20
2022-08-14T11:15:01.798Z,27.90
2022-08-14T11:17:33.575Z,28.00
2022-08-14T11:20:02.667Z,28.00
2022-08-14T11:23:03.399Z,28.20
2022-08-14T11:25:21.359Z,28.00
2022-08-14T11:27:50.573Z,28.10
2022-08-14T11:30:50.242Z,28.00
2022-08-14T11:33:09.106Z,28.20
2022-08-14T11:35:47.314Z,28.30
2022-08-14T11:38:16.967Z,28.30
2022-08-14T11:40:46.670Z,28.30
2022-08-14T11:43:18.263Z,28.30
2022-08-14T11:45:50.626Z,28.10
2022-08-14T11:49:04.048Z,28.20
2022-08-14T11:51:30.385Z,28.00
2022-08-14T11:54:03.183Z,28.10
2022-08-14T11:56:37.733Z,28.00
2022-08-14T11:59:10.088Z,27.90
2022-08-14T12:01:41.405Z,27.90
2022-08-14T12:04:31.701Z,28.00
2022-08-14T12:07:01.408Z,28.10
2022-08-14T12:09:34.822Z,28.10
2022-08-14T12:12:16.243Z,28.10
2022-08-14T12:15:01.921Z,28.10
2022-08-14T12:17:34.254Z,28.10
2022-08-14T12:20:31.917Z,27.90
2022-08-14T12:23:01.482Z,27.80
2022-08-14T12:25:29.341Z,28.00
2022-08-14T12:27:59.062Z,28.00
2022-08-14T12:30:40.092Z,28.00
2022-08-14T12:33:33.661Z,28.20
2022-08-14T12:36:05.878Z,28.20
2022-08-14T12:38:43.614Z,27.90
2022-08-14T12:41:21.121Z,27.90
2022-08-14T12:43:55.659Z,28.00
2022-08-14T12:46:31.411Z,28.10
2022-08-14T12:49:02.544Z,28.20
2022-08-14T12:51:32.318Z,28.20
2022-08-14T12:54:01.085Z,28.10
2022-08-14T12:56:33.764Z,27.90
2022-08-14T12:59:04.264Z,27.90
2022-08-14T13:01:59.141Z,28.00
2022-08-14T13:04:25.848Z,28.00
2022-08-14T13:06:53.840Z,28.20
2022-08-14T13:09:35.814Z,28.40
2022-08-14T13:12:32.289Z,28.70
2022-08-14T13:14:55.653Z,29.00
2022-08-14T13:17:24.389Z,29.00
2022-08-14T13:19:57.015Z,28.60
2022-08-14T13:22:33.526Z,28.60
2022-08-14T13:25:05.844Z,28.50
2022-08-14T13:27:38.516Z,28.60
2022-08-14T13:30:14.565Z,28.80
2022-08-14T13:32:51.424Z,28.80
2022-08-14T13:35:18.964Z,29.00
2022-08-14T13:37:49.775Z,29.00
2022-08-14T13:40:21.888Z,28.80
2022-08-14T13:42:56.740Z,28.80
2022-08-14T13:45:33.876Z,28.80
2022-08-14T13:48:28.504Z,28.80
2022-08-14T13:51:03.005Z,28.90
2022-08-14T13:53:35.102Z,28.70
2022-08-14T13:56:06.186Z,28.80
2022-08-14T13:58:35.847Z,28.80
2022-08-14T14:01:04.560Z,29.10
2022-08-14T14:03:38.102Z,28.70
2022-08-14T14:06:07.206Z,28.70
2022-08-14T14:08:46.327Z,28.60
2022-08-14T14:11:16.440Z,28.70
2022-08-14T14:13:48.651Z,28.60
2022-08-14T14:16:26.357Z,28.50
2022-08-14T14:19:06.736Z,28.60
2022-08-14T14:21:37.549Z,28.50
2022-08-14T14:24:06.183Z,28.40
2022-08-14T14:26:36.043Z,28.50
2022-08-14T14:29:06.413Z,28.30
2022-08-14T14:31:38.877Z,28.30
2022-08-14T14:34:29.014Z,28.30
2022-08-14T14:37:02.970Z,28.30
2022-08-14T14:39:31.254Z,28.40
2022-08-14T14:42:06.561Z,28.30
2022-08-14T14:44:40.460Z,28.40
2022-08-14T14:47:11.839Z,28.50
2022-08-14T14:49:54.628Z,28.60
2022-08-14T14:52:27.810Z,28.30
2022-08-14T14:54:58.394Z,28.50
2022-08-14T14:57:35.682Z,28.40
2022-08-14T15:00:19.548Z,28.40
2022-08-14T15:02:52.112Z,28.30
2022-08-14T15:05:22.232Z,28.30
2022-08-14T15:07:52.957Z,28.10
2022-08-14T15:10:28.279Z,28.10
2022-08-14T15:13:03.690Z,28.00
2022-08-14T15:15:37.507Z,28.10
2022-08-14T15:18:36.334Z,27.90
2022-08-14T15:20:58.211Z,28.00
2022-08-14T15:23:44.419Z,28.00
2022-08-14T15:26:24.369Z,27.80
2022-08-14T15:29:02.904Z,27.80
2022-08-14T15:31:32.801Z,28.00
2022-08-14T15:34:44.794Z,28.00
2022-08-14T15:36:59.373Z,27.70
2022-08-14T15:39:29.550Z,27.70
2022-08-14T15:42:03.050Z,27.80
2022-08-14T15:44:34.274Z,27.70
2022-08-14T15:47:02.096Z,27.70
2022-08-14T15:49:34.567Z,27.60
2022-08-14T15:52:04.286Z,27.50
2022-08-14T15:54:34.088Z,27.60
2022-08-14T15:57:09.681Z,27.50
2022-08-14T15:59:58.688Z,27.60
2022-08-14T16:02:28.172Z,27.40
2022-08-14T16:04:56.438Z,27.40
2022-08-14T16:07:29.244Z,27.40
2022-08-14T16:12:47.745Z,27.30
2022-08-14T16:15:17.147Z,27.30
2022-08-14T16:17:44.864Z,27.20
2022-08-14T16:20:12.299Z,27.20
2022-08-14T16:23:00.618Z,27.20
2022-08-14T16:25:35.359Z,27.20
2022-08-14T16:28:03.581Z,27.20
2022-08-14T16:30:35.464Z,27.10
2022-08-14T16:33:04.979Z,27.40
2022-08-14T16:35:43.476Z,27.10
2022-08-14T16:38:46.174Z,27.10
2022-08-14T16:41:22.015Z,27.20
2022-08-14T16:43:52.570Z,27.10
2022-08-14T16:46:23.282Z,27.00
2022-08-14T16:48:54.867Z,27.10
2022-08-14T16:51:25.491Z,26.90
2022-08-14T16:53:54.716Z,27.00
2022-08-14T16:56:25.377Z,26.90
2022-08-14T16:59:14.929Z,26.70
2022-08-14T17:01:42.862Z,26.70
2022-08-14T17:04:24.824Z,26.70
2022-08-14T17:06:55.141Z,26.90
2022-08-14T17:09:43.868Z,26.70
2022-08-14T17:12:28.643Z,26.70
2022-08-14T17:15:10.484Z,26.60
2022-08-14T17:17:41.570Z,26.70
2022-08-14T17:20:54.097Z,26.50
2022-08-14T17:23:10.891Z,26.40
2022-08-14T17:25:39.067Z,26.40
2022-08-14T17:31:02.744Z,26.10
2022-08-14T17:33:40.672Z,26.00
2022-08-14T17:36:21.800Z,26.10
2022-08-14T17:39:06.378Z,26.00
2022-08-14T17:41:43.708Z,25.90
2022-08-14T17:44:34.472Z,25.90
2022-08-14T17:47:10.197Z,25.70
2022-08-14T17:49:52.053Z,25.80
2022-08-14T17:52:34.781Z,25.60
2022-08-14T17:56:00.389Z,25.50
2022-08-14T17:57:58.865Z,25.70
2022-08-14T18:00:26.402Z,25.70
2022-08-14T18:02:57.873Z,25.40
2022-08-14T18:06:08.349Z,25.30
2022-08-14T18:08:33.775Z,25.40
2022-08-14T18:11:03.841Z,25.40
2022-08-14T18:13:50.986Z,25.10
2022-08-14T18:16:22.165Z,25.10
2022-08-14T18:18:51.535Z,25.30
2022-08-14T18:21:39.751Z,25.00
2022-08-14T18:24:28.524Z,25.00
2022-08-14T18:27:08.741Z,25.00
2022-08-14T18:29:54.686Z,25.10
2022-08-14T18:32:31.850Z,24.90
2022-08-14T18:35:10.934Z,25.00
2022-08-14T18:37:40.762Z,24.90
2022-08-14T18:40:17.766Z,24.80
2022-08-14T18:42:53.117Z,25.00
2022-08-14T18:45:28.837Z,25.00
2022-08-14T18:48:15.774Z,25.00
2022-08-14T18:51:03.186Z,24.90
2022-08-14T18:53:52.553Z,24.80
2022-08-14T18:56:41.210Z,24.70
2022-08-14T18:59:29.146Z,24.80
2022-08-14T19:02:30.263Z,24.90
2022-08-14T19:04:59.775Z,24.90
2022-08-14T19:07:34.026Z,24.60
2022-08-14T19:10:08.510Z,24.80
2022-08-14T19:13:11.916Z,24.70
2022-08-14T19:18:38.404Z,24.70
2022-08-14T19:21:13.580Z,24.50
2022-08-14T19:23:44.146Z,24.50
2022-08-14T19:26:36.932Z,24.30
2022-08-14T19:29:23.601Z,24.50
2022-08-14T19:31:55.799Z,24.30
2022-08-14T19:34:52.343Z,24.40
2022-08-14T19:37:52.791Z,24.20
2022-08-14T19:40:42.816Z,24.40
2022-08-14T19:43:10.574Z,24.20
2022-08-14T19:48:14.095Z,24.20
2022-08-14T19:50:44.300Z,24.10
2022-08-14T19:53:17.232Z,24.20
2022-08-14T19:56:00.795Z,23.90
2022-08-14T19:58:37.722Z,24.10
2022-08-14T20:01:36.722Z,24.10
2022-08-14T20:04:45.205Z,23.90
2022-08-14T20:07:01.577Z,23.80
2022-08-14T20:11:08.411Z,23.90
2022-08-14T20:12:36.659Z,23.90
2022-08-14T20:15:21.062Z,23.70
2022-08-14T20:17:52.353Z,23.70
2022-08-14T20:20:31.607Z,23.70
2022-08-14T20:23:11.146Z,23.70
2022-08-14T20:25:45.224Z,23.60
2022-08-14T20:31:20.059Z,23.50
2022-08-14T20:34:35.687Z,23.40
2022-08-14T20:37:15.498Z,23.50
2022-08-14T20:39:54.438Z,23.40
2022-08-14T20:42:43.662Z,23.40
2022-08-14T20:45:27.599Z,23.60
2022-08-14T20:48:07.281Z,23.30
2022-08-14T20:50:45.177Z,23.40
2022-08-14T20:53:32.376Z,23.30
2022-08-14T20:56:04.822Z,23.30
2022-08-14T20:58:52.592Z,23.30
2022-08-14T21:01:19.776Z,23.20
2022-08-14T21:11:28.180Z,22.90
2022-08-14T21:14:25.193Z,23.00
2022-08-14T21:16:58.292Z,22.80
2022-08-14T21:19:26.985Z,22.70
2022-08-14T21:21:56.261Z,22.80
2022-08-14T21:24:39.664Z,22.80
2022-08-14T21:27:20.420Z,22.60
2022-08-14T21:29:55.505Z,22.60
2022-08-14T21:32:50.484Z,22.60
2022-08-14T21:35:25.957Z,22.50
2022-08-14T21:37:53.917Z,22.60
2022-08-14T21:40:41.789Z,22.40
2022-08-14T21:43:14.921Z,22.50
2022-08-14T21:45:45.474Z,22.50
2022-08-14T21:48:21.490Z,22.40
2022-08-14T21:51:00.322Z,22.30
2022-08-14T21:53:32.221Z,22.10
2022-08-14T21:55:59.537Z,22.00
2022-08-14T21:58:54.157Z,22.10
2022-08-14T22:01:19.430Z,22.10
2022-08-14T22:03:54.999Z,21.80
2022-08-14T22:08:58.228Z,21.70
2022-08-14T22:11:27.310Z,21.70
2022-08-14T22:13:56.099Z,21.90
2022-08-14T22:17:03.314Z,21.80
2022-08-14T22:19:14.927Z,21.70
2022-08-14T22:21:45.359Z,21.80
2022-08-14T22:24:37.515Z,21.60
2022-08-14T22:27:05.240Z,21.70
2022-08-14T22:29:34.706Z,21.50
2022-08-14T22:32:07.282Z,21.70
2022-08-14T22:34:35.179Z,21.60
2022-08-14T22:37:07.672Z,21.30
2022-08-14T22:40:17.294Z,21.30
2022-08-14T22:42:23.116Z,21.50
2022-08-14T22:44:51.928Z,21.40
2022-08-14T22:47:26.205Z,21.30
2022-08-14T22:50:30.726Z,21.20
2022-08-14T22:52:56.802Z,21.20
2022-08-14T22:57:54.523Z,21.20
2022-08-14T23:00:25.191Z,21.30
2022-08-14T23:02:57.411Z,21.20
2022-08-14T23:05:39.760Z,21.40
2022-08-14T23:08:59.554Z,21.30
2022-08-14T23:10:59.800Z,21.40
2022-08-14T23:13:26.891Z,21.40
2022-08-14T23:18:29.507Z,21.00
2022-08-14T23:20:57.407Z,21.20
2022-08-14T23:23:26.862Z,21.20
2022-08-14T23:25:59.878Z,21.10
2022-08-14T23:28:33.281Z,21.10
2022-08-14T23:31:26.352Z,20.90
2022-08-14T23:36:37.244Z,20.80
2022-08-14T23:39:10.310Z,20.70
2022-08-14T23:54:49.142Z,20.60
2022-08-14T23:59:54.193Z,21.00
